Time;durP1;ratioP1;P1;durP2;ratioP2;P2;SDS_P1;SDS_P2;PMS_P1;PMS_P2;Temp;Humidity;BMP_temperature;BMP_pressure;BME280_temperature;BME280_humidity;BME280_pressure;Samples;Min_cycle;Max_cycle;Signal;HPM_P1;HPM_P2
2023/05/09 00:00:09;;;;;;;25.33;16.63;;;17.50;88.80;;;;;;5049804;28;20480;-71
2023/05/09 00:02:36;;;;;;;28.80;18.20;;;17.50;88.50;;;;;;5048849;28;20372;-71
2023/05/09 00:05:02;;;;;;;26.27;17.42;;;17.60;88.40;;;;;;5048433;28;20100;-70
2023/05/09 00:07:28;;;;;;;24.52;16.77;;;17.50;88.30;;;;;;5049599;28;20028;-70
2023/05/09 00:09:54;;;;;;;25.80;16.50;;;17.60;88.50;;;;;;5064404;28;20506;-70
2023/05/09 00:12:20;;;;;;;24.98;16.10;;;17.60;88.40;;;;;;5056238;28;20040;-68
2023/05/09 00:14:49;;;;;;;24.02;16.02;;;17.60;88.30;;;;;;5053295;28;20017;-70
2023/05/09 00:17:15;;;;;;;27.90;17.67;;;17.60;88.20;;;;;;5053055;28;20479;-71
2023/05/09 00:19:42;;;;;;;25.65;16.38;;;17.70;88.10;;;;;;5064295;28;20025;-71
2023/05/09 00:22:08;;;;;;;24.95;16.08;;;17.60;88.20;;;;;;5052844;28;20032;-70
2023/05/09 00:24:34;;;;;;;26.10;17.42;;;17.60;88.40;;;;;;5052583;28;20033;-72
2023/05/09 00:26:59;;;;;;;31.10;18.88;;;17.50;88.70;;;;;;5052583;28;20033;-72
2023/05/09 00:29:25;;;;;;;28.92;17.95;;;17.40;89.10;;;;;;5050392;28;20029;-72
2023/05/09 00:31:50;;;;;;;29.30;18.60;;;17.40;89.40;;;;;;5047943;28;20052;-71
2023/05/09 00:34:16;;;;;;;26.85;17.23;;;17.40;89.50;;;;;;5052675;28;20095;-71
2023/05/09 00:36:41;;;;;;;24.55;15.63;;;17.40;89.40;;;;;;5051723;28;20099;-71
2023/05/09 00:39:07;;;;;;;26.67;17.17;;;17.50;89.40;;;;;;5071671;28;20436;-70
2023/05/09 00:41:32;;;;;;;24.45;15.73;;;17.50;89.20;;;;;;5059907;28;20060;-71
2023/05/09 00:43:58;;;;;;;27.10;17.70;;;17.60;89.00;;;;;;5067909;28;20507;-70
2023/05/09 00:46:24;;;;;;;27.15;17.48;;;17.60;88.80;;;;;;5053755;28;20111;-70
2023/05/09 00:48:51;;;;;;;24.88;15.90;;;17.60;88.70;;;;;;5038933;28;20052;-70
2023/05/09 00:51:17;;;;;;;25.02;16.08;;;17.60;88.70;;;;;;5052232;28;20025;-70
2023/05/09 00:53:44;;;;;;;23.77;15.23;;;17.70;88.70;;;;;;5064833;28;20104;-70
2023/05/09 00:56:10;;;;;;;25.23;16.67;;;17.70;88.60;;;;;;5052979;28;20016;-70
2023/05/09 00:58:37;;;;;;;26.83;16.83;;;17.70;88.50;;;;;;5052559;28;20055;-71
2023/05/09 01:01:03;;;;;;;23.08;15.43;;;17.60;88.40;;;;;;5052387;28;20024;-71
2023/05/09 01:03:29;;;;;;;24.35;15.35;;;17.60;88.50;;;;;;5063112;28;20021;-71
2023/05/09 01:06:11;;;;;;;24.83;15.93;;;17.60;88.60;;;;;;5063933;28;20491;-71
2023/05/09 01:08:45;;;;;;;25.65;15.75;;;17.60;88.60;;;;;;5048832;28;20086;-70
2023/05/09 01:11:32;;;;;;;28.17;17.55;;;17.60;88.60;;;;;;5051702;28;20055;-71
2023/05/09 01:14:36;;;;;;;25.30;15.73;;;17.60;88.50;;;;;;5052957;28;20036;-71
2023/05/09 01:17:12;;;;;;;22.95;14.75;;;17.60;88.50;;;;;;5051196;28;20028;-70
2023/05/09 01:19:58;;;;;;;24.73;16.10;;;17.60;88.60;;;;;;5051350;28;20492;-71
2023/05/09 01:22:29;;;;;;;26.88;17.05;;;17.60;88.60;;;;;;5051973;28;20032;-73
2023/05/09 01:25:06;;;;;;;28.10;17.77;;;17.60;88.60;;;;;;5036600;28;20053;-71
2023/05/09 01:27:56;;;;;;;29.45;17.88;;;17.60;89.40;;;;;;5044590;28;20017;-72
2023/05/09 01:30:24;;;;;;;28.08;17.38;;;17.50;88.80;;;;;;5051577;28;20032;-72
2023/05/09 01:32:55;;;;;;;26.75;16.35;;;17.50;89.00;;;;;;5041476;28;20024;-73
2023/05/09 01:35:25;;;;;;;24.45;16.42;;;17.50;89.30;;;;;;5071608;28;20016;-72
2023/05/09 01:37:51;;;;;;;27.27;17.00;;;17.50;89.30;;;;;;5053577;28;20027;-71
2023/05/09 01:40:19;;;;;;;30.50;18.75;;;17.50;89.20;;;;;;5053843;28;20111;-71
2023/05/09 01:43:07;;;;;;;25.55;16.63;;;17.60;89.30;;;;;;5058330;28;20111;-68
2023/05/09 01:45:34;;;;;;;28.50;17.70;;;17.60;89.20;;;;;;5044181;28;20028;-71
2023/05/09 01:48:01;;;;;;;25.30;16.25;;;17.60;89.20;;;;;;5050771;28;20032;-72
2023/05/09 01:50:29;;;;;;;30.30;18.67;;;17.60;89.30;;;;;;5050654;28;20021;-71
2023/05/09 01:52:57;;;;;;;27.50;17.38;;;17.60;89.30;;;;;;5058055;28;20039;-71
2023/05/09 01:55:26;;;;;;;28.83;17.83;;;17.60;89.20;;;;;;5070427;28;20094;-72
2023/05/09 01:57:53;;;;;;;28.75;17.75;;;17.60;89.20;;;;;;5070585;28;20032;-71
2023/05/09 02:00:20;;;;;;;30.35;19.25;;;17.60;89.30;;;;;;5063632;28;20056;-72
2023/05/09 02:02:46;;;;;;;34.20;21.02;;;17.50;89.30;;;;;;5055922;28;20028;-72
2023/05/09 02:05:14;;;;;;;32.05;19.67;;;17.50;89.50;;;;;;5052777;28;20108;-69
2023/05/09 02:07:40;;;;;;;30.48;18.92;;;17.50;89.70;;;;;;5051276;28;20028;-71
2023/05/09 02:10:08;;;;;;;26.80;17.70;;;17.40;89.80;;;;;;5050964;28;20020;-71
2023/05/09 02:12:34;;;;;;;28.95;17.13;;;17.40;89.90;;;;;;5052273;28;20029;-70
2023/05/09 02:14:59;;;;;;;30.23;20.08;;;17.40;89.90;;;;;;5048203;28;20021;-71
2023/05/09 02:17:25;;;;;;;26.05;16.90;;;17.40;90.00;;;;;;5052296;28;20052;-71
2023/05/09 02:19:51;;;;;;;29.77;18.15;;;17.40;90.10;;;;;;5052653;28;20021;-70
2023/05/09 02:22:17;;;;;;;28.65;17.63;;;17.40;90.10;;;;;;5043044;28;20017;-71
2023/05/09 02:24:44;;;;;;;30.50;19.00;;;17.50;90.00;;;;;;5052695;28;20029;-70
2023/05/09 02:27:11;;;;;;;29.17;18.08;;;17.50;90.00;;;;;;5069833;28;20031;-69
2023/05/09 02:29:42;;;;;;;31.50;20.08;;;17.40;90.00;;;;;;5069786;28;20024;-69
2023/05/09 02:32:12;;;;;;;31.42;19.95;;;17.40;90.10;;;;;;5068215;28;20116;-68
2023/05/09 02:34:39;;;;;;;35.72;21.75;;;17.30;90.20;;;;;;5050312;28;20057;-67
2023/05/09 02:37:06;;;;;;;40.10;24.67;;;17.20;90.30;;;;;;5048823;28;20021;-69
2023/05/09 02:39:32;;;;;;;32.33;20.15;;;17.20;90.50;;;;;;5049471;28;20476;-69
2023/05/09 02:42:10;;;;;;;33.50;21.17;;;17.30;90.50;;;;;;5051000;28;20082;-69
2023/05/09 02:44:37;;;;;;;30.77;18.52;;;17.20;90.50;;;;;;5070436;28;20025;-69
2023/05/09 02:47:04;;;;;;;31.27;19.40;;;17.20;90.40;;;;;;5052784;28;20242;-68
2023/05/09 02:49:30;;;;;;;31.48;20.13;;;17.20;90.40;;;;;;5032396;28;20116;-71
2023/05/09 02:51:55;;;;;;;35.03;22.27;;;17.20;90.40;;;;;;5050367;28;20104;-71
2023/05/09 02:54:21;;;;;;;34.92;21.33;;;17.10;90.50;;;;;;5049699;28;20571;-71
2023/05/09 02:56:46;;;;;;;30.42;18.95;;;17.10;90.50;;;;;;5047437;28;20060;-71
2023/05/09 02:59:12;;;;;;;36.58;21.77;;;17.10;90.60;;;;;;5051515;28;20029;-71
2023/05/09 03:01:38;;;;;;;34.63;21.10;;;17.00;90.60;;;;;;5055543;28;20033;-70
2023/05/09 03:04:03;;;;;;;35.00;21.02;;;17.00;90.60;;;;;;5070377;28;20021;-70
2023/05/09 03:06:29;;;;;;;34.25;20.92;;;17.00;90.60;;;;;;5070148;28;20024;-72
2023/05/09 03:08:55;;;;;;;36.25;21.83;;;17.00;90.60;;;;;;5070133;28;20623;-72
2023/05/09 03:11:21;;;;;;;33.13;21.23;;;17.00;90.60;;;;;;5066019;28;20472;-71
2023/05/09 03:13:47;;;;;;;35.13;21.67;;;17.00;90.60;;;;;;5046961;28;20031;-69
2023/05/09 03:16:14;;;;;;;40.00;23.58;;;17.00;90.70;;;;;;5049028;28;20100;-71
2023/05/09 03:18:40;;;;;;;42.75;25.70;;;17.00;90.70;;;;;;5049072;28;20024;-71
2023/05/09 03:21:07;;;;;;;45.90;27.88;;;16.90;90.80;;;;;;5053064;28;20024;-72
2023/05/09 03:23:32;;;;;;;38.38;22.98;;;16.90;90.90;;;;;;5070011;28;20430;-72
2023/05/09 03:25:58;;;;;;;40.80;24.75;;;16.80;90.90;;;;;;5069995;28;20032;-69
2023/05/09 03:28:23;;;;;;;43.10;25.92;;;16.90;91.00;;;;;;5069802;28;20025;-71
2023/05/09 03:30:49;;;;;;;45.40;27.50;;;16.80;91.00;;;;;;5069224;28;20028;-69
2023/05/09 03:33:15;;;;;;;47.33;27.73;;;16.80;91.20;;;;;;5040144;28;20029;-71
2023/05/09 03:35:40;;;;;;;42.08;25.17;;;16.70;91.30;;;;;;5049673;28;20036;-69
2023/05/09 03:38:06;;;;;;;42.78;25.10;;;16.70;91.30;;;;;;5049887;28;20025;-71
2023/05/09 03:40:31;;;;;;;40.10;23.10;;;16.70;91.40;;;;;;5049454;28;20502;-70
2023/05/09 03:42:57;;;;;;;38.90;22.58;;;16.80;91.40;;;;;;5068902;28;20029;-70
2023/05/09 03:45:22;;;;;;;38.60;23.70;;;16.80;91.40;;;;;;5073048;28;20048;-71
2023/05/09 03:47:48;;;;;;;33.55;20.40;;;16.80;91.40;;;;;;5072920;28;20032;-72
2023/05/09 03:50:13;;;;;;;33.95;20.45;;;16.90;91.40;;;;;;5053935;28;20072;-69
2023/05/09 03:52:39;;;;;;;32.65;20.75;;;16.90;91.40;;;;;;5050351;28;20061;-70
2023/05/09 03:55:05;;;;;;;32.47;19.38;;;16.80;91.30;;;;;;5053658;28;20600;-72
2023/05/09 03:57:31;;;;;;;33.92;20.80;;;16.90;91.30;;;;;;5053220;28;20025;-72
2023/05/09 03:59:57;;;;;;;31.38;19.63;;;16.90;91.20;;;;;;5053425;28;20232;-71
2023/05/09 04:02:22;;;;;;;32.58;19.77;;;17.00;91.20;;;;;;5055805;28;20036;-71
2023/05/09 04:04:48;;;;;;;36.45;22.13;;;17.00;91.10;;;;;;5053622;28;20025;-73
2023/05/09 04:07:14;;;;;;;28.77;18.42;;;17.00;91.00;;;;;;5064392;28;20025;-70
2023/05/09 04:09:41;;;;;;;33.33;19.73;;;17.10;91.00;;;;;;5055768;28;20048;-71
2023/05/09 04:12:07;;;;;;;29.40;18.27;;;17.10;90.80;;;;;;5054163;28;20025;-73
2023/05/09 04:14:33;;;;;;;27.48;17.27;;;17.10;90.80;;;;;;5052332;28;20029;-74
2023/05/09 04:16:58;;;;;;;28.80;18.48;;;17.20;90.70;;;;;;5061041;28;20479;-72
2023/05/09 04:19:24;;;;;;;27.83;17.95;;;17.20;90.60;;;;;;5059522;28;20483;-73
2023/05/09 04:21:50;;;;;;;27.75;17.98;;;17.30;90.60;;;;;;5043978;28;20075;-73
2023/05/09 04:24:15;;;;;;;30.45;18.48;;;17.30;90.50;;;;;;5052769;28;20029;-73
2023/05/09 04:26:41;;;;;;;36.92;21.67;;;17.30;90.40;;;;;;5050705;28;20040;-71
2023/05/09 04:29:06;;;;;;;35.47;22.10;;;17.20;90.40;;;;;;5052513;28;20056;-73
2023/05/09 04:31:33;;;;;;;29.35;18.67;;;17.00;90.40;;;;;;5052892;28;20564;-72
2023/05/09 04:33:59;;;;;;;34.55;21.70;;;17.00;90.50;;;;;;5051995;28;20079;-69
2023/05/09 04:36:26;;;;;;;32.00;21.08;;;17.00;90.50;;;;;;5061347;28;20021;-72
2023/05/09 04:38:51;;;;;;;32.20;21.02;;;17.00;90.60;;;;;;5052247;28;20025;-72
2023/05/09 04:41:17;;;;;;;29.33;18.30;;;16.90;90.60;;;;;;5053056;28;20040;-72
2023/05/09 04:43:43;;;;;;;30.05;19.23;;;16.90;90.70;;;;;;5051931;28;20029;-69
2023/05/09 04:46:08;;;;;;;33.90;22.17;;;16.90;90.60;;;;;;5052452;28;20384;-71
2023/05/09 04:48:34;;;;;;;31.83;21.23;;;16.90;90.60;;;;;;5051789;28;20383;-73
2023/05/09 04:51:01;;;;;;;29.50;17.88;;;16.90;90.60;;;;;;5052070;28;20048;-72
2023/05/09 04:53:27;;;;;;;31.48;19.35;;;16.90;90.70;;;;;;5051072;28;20764;-72
2023/05/09 04:55:53;;;;;;;32.13;20.55;;;16.90;90.80;;;;;;5058360;28;20548;-72
2023/05/09 04:58:19;;;;;;;29.35;19.13;;;17.00;90.80;;;;;;5062705;28;20013;-71
2023/05/09 05:00:45;;;;;;;30.33;19.83;;;16.90;90.70;;;;;;5052165;28;20024;-70
2023/05/09 05:03:11;;;;;;;30.92;19.20;;;16.90;90.80;;;;;;5050201;28;20025;-71
2023/05/09 05:05:36;;;;;;;29.40;18.85;;;16.90;90.80;;;;;;5051355;28;20147;-71
2023/05/09 05:08:02;;;;;;;25.17;17.70;;;16.90;90.80;;;;;;5051689;28;20021;-71
2023/05/09 05:10:29;;;;;;;29.10;18.80;;;16.90;90.80;;;;;;5056153;28;20487;-71
2023/05/09 05:12:55;;;;;;;30.92;20.42;;;16.90;90.70;;;;;;5057574;28;20029;-72
2023/05/09 05:15:20;;;;;;;31.17;20.50;;;16.90;90.80;;;;;;5051491;28;20024;-72
2023/05/09 05:17:46;;;;;;;27.65;17.73;;;16.90;90.80;;;;;;5050502;28;20048;-72
2023/05/09 05:20:11;;;;;;;21.75;14.90;;;16.80;90.80;;;;;;5050553;28;20032;-71
2023/05/09 05:22:37;;;;;;;28.27;17.83;;;16.80;90.80;;;;;;5048238;28;20110;-70
2023/05/09 05:25:03;;;;;;;31.67;21.30;;;16.70;90.80;;;;;;5051371;28;20029;-71
2023/05/09 05:27:29;;;;;;;31.75;21.25;;;16.70;90.90;;;;;;5051052;28;20025;-71
2023/05/09 05:29:55;;;;;;;28.20;19.00;;;16.60;91.00;;;;;;5051326;28;20407;-72
2023/05/09 05:32:20;;;;;;;27.30;18.65;;;16.60;91.00;;;;;;5051978;28;20111;-71
2023/05/09 05:34:46;;;;;;;31.27;21.13;;;16.60;91.00;;;;;;5051575;28;20032;-71
2023/05/09 05:37:12;;;;;;;28.90;20.20;;;16.70;91.00;;;;;;5054184;28;20036;-72
2023/05/09 05:39:37;;;;;;;26.00;16.88;;;16.70;91.00;;;;;;5057202;28;20090;-71
2023/05/09 05:42:03;;;;;;;21.83;15.38;;;16.70;91.00;;;;;;5069846;28;20040;-70
2023/05/09 05:44:28;;;;;;;25.38;17.23;;;16.80;91.00;;;;;;5051799;28;20025;-69
2023/05/09 05:46:54;;;;;;;22.73;15.27;;;16.70;90.90;;;;;;5058901;28;20120;-71
2023/05/09 05:49:19;;;;;;;24.40;17.23;;;16.80;91.00;;;;;;5064461;28;20524;-71
2023/05/09 05:51:45;;;;;;;27.25;18.55;;;16.80;90.90;;;;;;5071163;28;20047;-71
2023/05/09 05:54:10;;;;;;;23.92;16.58;;;16.90;90.80;;;;;;5059366;28;20542;-68
2023/05/09 05:56:36;;;;;;;19.70;14.10;;;16.90;90.80;;;;;;5051956;28;20024;-72
2023/05/09 05:59:02;;;;;;;22.30;15.75;;;17.00;90.70;;;;;;5049613;28;20025;-71
2023/05/09 06:01:27;;;;;;;24.80;17.30;;;17.10;90.60;;;;;;5056803;28;20024;-71
2023/05/09 06:03:55;;;;;;;22.15;14.68;;;17.10;90.40;;;;;;5070526;28;20063;-72
2023/05/09 06:06:21;;;;;;;20.75;13.50;;;17.20;90.40;;;;;;5070569;28;20192;-71
2023/05/09 06:08:50;;;;;;;21.40;15.07;;;17.20;90.30;;;;;;5070822;28;20035;-69
2023/05/09 06:11:16;;;;;;;23.45;14.77;;;17.20;90.30;;;;;;5031472;28;20399;-70
2023/05/09 06:13:41;;;;;;;23.83;15.70;;;17.30;90.20;;;;;;5043510;28;20027;-71
2023/05/09 06:16:08;;;;;;;20.15;14.02;;;17.30;90.10;;;;;;5059774;28;20032;-71
2023/05/09 06:18:36;;;;;;;24.70;17.67;;;17.30;90.00;;;;;;5055662;28;20106;-70
2023/05/09 06:21:05;;;;;;;19.67;14.48;;;17.30;89.80;;;;;;5050829;28;20016;-69
2023/05/09 06:23:31;;;;;;;23.70;16.15;;;17.30;89.90;;;;;;5048840;28;20483;-71
2023/05/09 06:25:56;;;;;;;19.35;13.88;;;17.30;89.60;;;;;;5049258;28;20033;-69
2023/05/09 06:28:29;;;;;;;20.40;15.27;;;17.30;89.70;;;;;;5092264;27;20450;-69
2023/05/09 06:30:54;;;;;;;18.98;14.68;;;17.40;89.50;;;;;;5091711;28;20028;-70
2023/05/09 06:33:20;;;;;;;20.73;15.10;;;17.40;89.30;;;;;;5099846;28;20099;-69
2023/05/09 06:35:45;;;;;;;22.58;16.15;;;17.40;89.00;;;;;;5091113;28;20099;-71
2023/05/09 06:38:11;;;;;;;19.45;13.80;;;17.30;88.70;;;;;;5086422;28;20024;-71
2023/05/09 06:40:36;;;;;;;20.90;14.68;;;17.30;88.90;;;;;;5087482;28;20031;-70
2023/05/09 06:43:02;;;;;;;15.93;11.88;;;17.30;88.80;;;;;;5088852;28;20664;-70
2023/05/09 06:45:29;;;;;;;19.88;13.85;;;17.40;88.90;;;;;;5087144;28;20502;-71
2023/05/09 06:47:55;;;;;;;20.73;15.00;;;17.50;88.50;;;;;;5085278;28;20013;-71
2023/05/09 06:50:20;;;;;;;19.80;13.93;;;17.50;88.30;;;;;;5086991;28;20028;-70
2023/05/09 06:52:46;;;;;;;16.65;13.23;;;17.60;87.90;;;;;;5084608;28;20498;-70
2023/05/09 06:55:11;;;;;;;20.08;13.73;;;17.60;87.80;;;;;;5092400;28;20039;-70
2023/05/09 06:57:39;;;;;;;18.15;12.40;;;17.60;87.60;;;;;;5088866;28;20025;-70
2023/05/09 07:00:05;;;;;;;21.42;15.80;;;17.70;87.70;;;;;;5085738;28;20052;-70
2023/05/09 07:02:31;;;;;;;20.85;15.80;;;17.80;87.40;;;;;;5089466;28;20036;-71
2023/05/09 07:04:56;;;;;;;15.57;10.80;;;17.80;86.80;;;;;;5083530;28;20098;-71
2023/05/09 07:07:22;;;;;;;18.13;12.57;;;17.90;86.80;;;;;;5088380;28;20089;-69
2023/05/09 07:09:47;;;;;;;20.02;14.50;;;18.00;86.90;;;;;;5083424;28;20025;-70
2023/05/09 07:12:13;;;;;;;16.77;12.98;;;18.10;86.50;;;;;;5092265;28;20020;-69
2023/05/09 07:14:40;;;;;;;17.83;13.75;;;18.30;86.20;;;;;;5085370;28;20024;-71
2023/05/09 07:17:07;;;;;;;16.42;12.40;;;18.30;85.50;;;;;;5090494;28;20501;-70
2023/05/09 07:19:33;;;;;;;16.60;13.32;;;18.40;85.30;;;;;;5085838;28;20444;-70
2023/05/09 07:21:58;;;;;;;15.27;10.48;;;18.30;84.90;;;;;;5106350;28;20095;-69
2023/05/09 07:24:24;;;;;;;15.75;12.93;;;18.30;85.10;;;;;;5107270;28;20032;-71
2023/05/09 07:26:49;;;;;;;19.33;14.02;;;18.30;84.70;;;;;;5107021;28;20020;-70
2023/05/09 07:29:16;;;;;;;14.82;11.40;;;18.30;84.50;;;;;;5107393;28;20019;-70
2023/05/09 07:31:41;;;;;;;13.40;10.02;;;18.20;84.80;;;;;;5090583;28;20070;-69
2023/05/09 07:34:07;;;;;;;13.30;10.30;;;18.30;85.00;;;;;;5086545;28;20510;-70
2023/05/09 07:36:33;;;;;;;13.48;10.50;;;18.30;84.90;;;;;;5085081;28;20024;-70
2023/05/09 07:38:59;;;;;;;16.08;11.73;;;18.30;84.50;;;;;;5077797;28;20112;-71
2023/05/09 07:41:25;;;;;;;15.55;12.60;;;18.20;84.40;;;;;;5084253;28;20107;-71
2023/05/09 07:43:51;;;;;;;12.57;10.07;;;18.10;84.60;;;;;;5077891;28;20031;-71
2023/05/09 07:46:16;;;;;;;14.52;10.68;;;18.10;84.90;;;;;;5086896;28;20029;-69
2023/05/09 07:48:42;;;;;;;14.45;11.98;;;18.20;85.00;;;;;;5073986;28;20031;-70
2023/05/09 07:51:07;;;;;;;14.43;11.75;;;18.20;84.50;;;;;;5072702;28;20116;-71
2023/05/09 07:53:33;;;;;;;14.00;11.07;;;18.20;84.30;;;;;;5080670;28;20385;-71
2023/05/09 07:55:59;;;;;;;13.63;11.25;;;18.20;84.20;;;;;;5092817;28;20103;-70
2023/05/09 07:58:25;;;;;;;12.30;10.00;;;18.30;84.20;;;;;;5092721;28;20382;-70
2023/05/09 08:00:50;;;;;;;13.70;11.57;;;18.40;84.10;;;;;;5080760;28;20028;-69
2023/05/09 08:03:16;;;;;;;12.18;10.10;;;18.50;83.60;;;;;;5078569;28;20043;-70
2023/05/09 08:05:41;;;;;;;14.23;12.02;;;18.60;83.50;;;;;;5086920;28;20024;-70
2023/05/09 08:08:07;;;;;;;13.30;11.07;;;18.70;83.30;;;;;;5092152;28;20084;-70
2023/05/09 08:10:32;;;;;;;13.60;10.57;;;18.70;83.30;;;;;;5072672;28;20099;-71
2023/05/09 08:12:58;;;;;;;15.02;12.05;;;18.70;83.50;;;;;;5072663;28;20046;-70
2023/05/09 08:15:24;;;;;;;17.40;14.18;;;18.70;83.50;;;;;;5072800;28;20035;-71
2023/05/09 08:17:50;;;;;;;19.83;14.57;;;18.60;83.20;;;;;;5072324;28;20024;-70
2023/05/09 08:20:16;;;;;;;13.75;11.52;;;18.70;83.90;;;;;;5073356;28;20023;-70
2023/05/09 08:22:42;;;;;;;14.05;11.15;;;18.60;83.20;;;;;;5072576;28;20032;-70
2023/05/09 08:25:07;;;;;;;17.73;13.07;;;18.70;83.30;;;;;;5073517;28;20075;-69
2023/05/09 08:27:33;;;;;;;12.38;9.75;;;18.70;83.20;;;;;;5073718;28;20465;-71
2023/05/09 08:29:59;;;;;;;14.70;10.65;;;18.70;83.30;;;;;;5073239;28;20028;-70
2023/05/09 08:32:24;;;;;;;14.52;12.10;;;18.70;83.30;;;;;;5073255;28;20020;-71
2023/05/09 08:34:50;;;;;;;16.45;13.95;;;18.70;83.20;;;;;;5070565;28;20017;-70
2023/05/09 08:37:16;;;;;;;13.48;11.27;;;18.60;83.10;;;;;;5088841;28;20039;-71
2023/05/09 08:39:41;;;;;;;12.95;9.75;;;18.50;83.10;;;;;;5091896;28;20024;-71
2023/05/09 08:42:09;;;;;;;14.98;11.30;;;18.60;83.40;;;;;;5091808;28;20042;-71
2023/05/09 08:44:35;;;;;;;13.82;10.93;;;18.50;83.20;;;;;;5092059;28;20077;-70
2023/05/09 08:47:02;;;;;;;12.00;9.88;;;18.50;83.20;;;;;;5080161;28;20509;-70
2023/05/09 08:49:28;;;;;;;12.70;9.52;;;18.50;83.20;;;;;;5071302;28;20024;-71
2023/05/09 08:51:55;;;;;;;13.20;10.40;;;18.60;83.30;;;;;;5080874;28;20048;-71
2023/05/09 08:54:21;;;;;;;13.30;10.27;;;18.60;83.30;;;;;;5091384;28;20028;-70
2023/05/09 08:56:47;;;;;;;13.50;11.18;;;18.60;83.30;;;;;;5091789;28;20050;-70
2023/05/09 08:59:15;;;;;;;10.93;9.32;;;18.60;83.10;;;;;;5089675;28;20491;-69
2023/05/09 09:01:41;;;;;;;12.52;10.15;;;18.60;83.10;;;;;;5051281;28;20029;-70
2023/05/09 09:04:07;;;;;;;13.48;11.48;;;18.60;83.00;;;;;;5051396;28;20028;-70
2023/05/09 09:06:34;;;;;;;11.07;9.27;;;18.60;82.90;;;;;;5073559;28;20025;-70
2023/05/09 09:09:00;;;;;;;18.50;15.13;;;18.70;82.90;;;;;;5071199;28;20396;-70
2023/05/09 09:11:28;;;;;;;12.38;10.45;;;18.80;82.50;;;;;;5071053;28;20505;-70
2023/05/09 09:13:59;;;;;;;13.85;11.30;;;18.80;82.60;;;;;;5076661;28;20085;-70
2023/05/09 09:16:27;;;;;;;12.90;10.30;;;18.70;82.90;;;;;;5091560;28;20013;-71
2023/05/09 09:18:54;;;;;;;19.02;15.85;;;18.80;83.00;;;;;;5089053;28;20165;-70
2023/05/09 09:21:20;;;;;;;17.98;12.75;;;18.80;82.70;;;;;;5091612;28;20625;-71
2023/05/09 09:23:46;;;;;;;14.35;11.98;;;18.60;82.80;;;;;;5090881;28;20024;-70
2023/05/09 09:26:12;;;;;;;14.73;12.38;;;18.60;83.10;;;;;;5089264;28;20025;-69
2023/05/09 09:28:38;;;;;;;12.82;10.77;;;18.60;83.20;;;;;;5071395;28;20564;-70
2023/05/09 09:31:23;;;;;;;13.05;11.02;;;18.50;83.30;;;;;;5070882;28;20032;-70
2023/05/09 09:33:50;;;;;;;9.68;8.52;;;18.50;83.40;;;;;;5051072;28;20021;-70
2023/05/09 09:36:24;;;;;;;10.52;9.10;;;18.50;83.70;;;;;;5057446;28;20474;-70
2023/05/09 09:38:54;;;;;;;11.85;9.07;;;18.50;83.80;;;;;;5090969;28;20024;-70
2023/05/09 09:41:21;;;;;;;8.95;7.47;;;18.40;83.90;;;;;;5088921;28;20020;-70
2023/05/09 09:43:46;;;;;;;10.65;9.20;;;18.50;83.90;;;;;;5087617;28;20478;-70
2023/05/09 09:46:15;;;;;;;10.15;8.05;;;18.30;83.90;;;;;;5089455;28;20035;-69
2023/05/09 09:48:49;;;;;;;9.27;8.27;;;18.30;84.30;;;;;;5072289;28;20099;-70
2023/05/09 09:51:17;;;;;;;8.02;6.90;;;18.20;84.30;;;;;;5071713;28;20025;-70
2023/05/09 09:53:43;;;;;;;8.45;7.50;;;18.30;84.20;;;;;;5090867;28;20016;-70
2023/05/09 09:56:09;;;;;;;9.35;7.57;;;18.40;84.10;;;;;;5090876;28;20024;-70
2023/05/09 09:58:35;;;;;;;9.32;7.68;;;18.40;84.10;;;;;;5086205;28;20097;-71
2023/05/09 10:01:09;;;;;;;7.88;7.07;;;18.50;83.90;;;;;;5070304;28;20024;-70
2023/05/09 10:03:39;;;;;;;9.98;7.60;;;18.60;83.80;;;;;;5071059;28;20025;-70
2023/05/09 10:06:11;;;;;;;9.77;8.02;;;18.70;83.50;;;;;;5077183;28;20054;-70
2023/05/09 10:08:38;;;;;;;7.60;6.72;;;18.80;83.40;;;;;;5070156;28;20111;-70
2023/05/09 10:11:04;;;;;;;8.93;7.38;;;18.80;83.10;;;;;;5071839;28;20510;-70
2023/05/09 10:13:30;;;;;;;9.18;8.02;;;19.00;82.80;;;;;;5070264;28;20479;-70
2023/05/09 10:15:57;;;;;;;9.35;7.55;;;19.10;82.20;;;;;;5070356;28;20021;-71
2023/05/09 10:18:27;;;;;;;7.22;5.85;;;19.10;82.00;;;;;;5069887;28;20044;-70
2023/05/09 10:20:55;;;;;;;7.60;6.78;;;19.20;81.80;;;;;;5078713;28;20035;-69
2023/05/09 10:23:22;;;;;;;9.52;8.15;;;19.20;81.40;;;;;;5090369;28;20032;-70
2023/05/09 10:26:12;;;;;;;7.35;6.07;;;19.20;80.50;;;;;;5082384;28;20065;-70
2023/05/09 10:28:40;;;;;;;10.32;8.20;;;19.20;80.70;;;;;;5059112;28;20105;-70
2023/05/09 10:31:22;;;;;;;8.27;7.47;;;19.30;79.80;;;;;;5078803;28;20027;-70
2023/05/09 10:33:49;;;;;;;6.85;5.97;;;19.10;79.60;;;;;;5090385;28;20032;-68
2023/05/09 10:36:20;;;;;;;9.10;7.30;;;19.00;79.80;;;;;;5090102;28;20024;-70
2023/05/09 10:38:47;;;;;;;7.07;5.90;;;19.10;79.80;;;;;;5090588;28;20501;-70
2023/05/09 10:41:15;;;;;;;5.75;4.70;;;19.10;79.80;;;;;;5088932;28;20023;-70
2023/05/09 10:43:41;;;;;;;7.32;6.57;;;19.20;79.90;;;;;;5091399;28;20508;-70
2023/05/09 10:46:08;;;;;;;5.72;4.85;;;19.30;79.60;;;;;;5087451;28;20378;-70
2023/05/09 10:48:35;;;;;;;6.13;4.68;;;19.40;79.50;;;;;;5088687;28;20054;-71
2023/05/09 10:51:02;;;;;;;6.63;5.80;;;19.40;79.50;;;;;;5081181;28;20032;-69
2023/05/09 10:53:39;;;;;;;8.70;6.22;;;19.40;79.20;;;;;;5069930;28;20074;-71
2023/05/09 10:56:05;;;;;;;6.45;5.63;;;19.30;79.00;;;;;;5078900;28;20018;-71
2023/05/09 10:58:32;;;;;;;6.22;5.30;;;19.20;79.60;;;;;;5088269;28;20033;-71
2023/05/09 11:00:59;;;;;;;7.32;5.68;;;19.10;80.10;;;;;;5090109;28;20089;-72
2023/05/09 11:03:27;;;;;;;6.18;5.03;;;19.00;80.70;;;;;;5090309;28;20024;-71
2023/05/09 11:05:55;;;;;;;5.25;4.75;;;18.90;81.40;;;;;;5088233;28;20028;-69
2023/05/09 11:08:24;;;;;;;5.30;4.80;;;18.80;81.80;;;;;;5089608;28;20047;-69
2023/05/09 11:10:51;;;;;;;7.32;5.85;;;18.80;82.20;;;;;;5077344;28;20028;-71
2023/05/09 11:13:22;;;;;;;8.43;7.07;;;18.70;82.50;;;;;;5071207;28;20082;-71
2023/05/09 11:16:00;;;;;;;6.90;5.53;;;18.60;82.90;;;;;;5073512;28;20475;-70
2023/05/09 11:18:27;;;;;;;5.53;5.03;;;18.50;83.30;;;;;;5072020;28;20505;-70
2023/05/09 11:20:53;;;;;;;6.90;5.93;;;18.50;83.60;;;;;;5073309;28;20074;-70
2023/05/09 11:23:20;;;;;;;5.05;4.55;;;18.40;84.00;;;;;;5086533;28;20032;-70
2023/05/09 11:25:49;;;;;;;6.38;5.28;;;18.30;84.30;;;;;;5093794;28;20038;-70
2023/05/09 11:28:27;;;;;;;5.50;5.00;;;18.30;84.90;;;;;;5092689;28;20028;-69
2023/05/09 11:30:52;;;;;;;4.80;4.18;;;18.30;85.30;;;;;;5093154;28;20016;-70
2023/05/09 11:33:23;;;;;;;6.30;5.60;;;18.20;85.40;;;;;;5080460;28;20501;-69
2023/05/09 11:36:24;;;;;;;6.43;5.35;;;18.20;85.70;;;;;;5073115;28;20025;-69
2023/05/09 11:39:05;;;;;;;5.22;4.28;;;18.20;85.90;;;;;;5052906;28;20070;-69
2023/05/09 11:41:38;;;;;;;;;;;18.00;86.20;;;;;;5059150;28;20024;-70
2023/05/09 11:44:15;;;;;;;6.65;5.25;;;18.00;86.30;;;;;;5072986;28;19940;-69
2023/05/09 11:46:41;;;;;;;5.85;4.32;;;17.70;86.80;;;;;;5076901;28;20086;-70
2023/05/09 11:49:07;;;;;;;4.88;4.30;;;17.70;87.40;;;;;;5091687;28;20034;-69
2023/05/09 11:51:36;;;;;;;6.05;4.13;;;17.60;87.40;;;;;;5092748;28;20016;-69
2023/05/09 11:54:02;;;;;;;5.35;3.97;;;17.50;87.70;;;;;;5071835;28;20028;-70
2023/05/09 11:56:29;;;;;;;4.68;3.88;;;17.30;88.00;;;;;;5072669;28;20025;-69
2023/05/09 11:58:55;;;;;;;5.00;3.38;;;17.30;88.30;;;;;;5074436;28;20081;-70
2023/05/09 12:01:21;;;;;;;5.18;4.00;;;17.40;88.50;;;;;;5092773;28;20031;-70
2023/05/09 12:03:48;;;;;;;4.88;3.90;;;17.40;88.70;;;;;;5083925;28;20021;-70
2023/05/09 12:06:17;;;;;;;5.32;4.75;;;17.40;88.80;;;;;;5073567;28;20020;-70
2023/05/09 12:08:44;;;;;;;4.22;3.38;;;17.40;89.50;;;;;;5072274;28;20017;-70
2023/05/09 12:11:10;;;;;;;4.53;3.50;;;17.50;89.00;;;;;;5073636;28;20431;-71
2023/05/09 12:13:44;;;;;;;5.65;3.83;;;17.60;89.00;;;;;;5072345;28;20025;-70
2023/05/09 12:16:09;;;;;;;5.57;4.50;;;17.60;88.90;;;;;;5073216;28;20516;-70
2023/05/09 12:18:35;;;;;;;4.32;3.90;;;17.60;88.80;;;;;;5072711;28;20115;-71
2023/05/09 12:21:00;;;;;;;4.40;3.78;;;17.50;89.10;;;;;;5074206;28;20020;-71
2023/05/09 12:23:26;;;;;;;4.63;3.70;;;17.60;89.40;;;;;;5072093;28;20086;-69
2023/05/09 12:25:53;;;;;;;5.20;4.13;;;17.50;89.50;;;;;;5074380;28;20023;-70
2023/05/09 12:28:21;;;;;;;5.30;4.65;;;17.50;89.70;;;;;;5092133;28;20024;-70
2023/05/09 12:30:47;;;;;;;4.45;4.00;;;17.40;89.80;;;;;;5072414;28;20386;-70